Time,TemperatureF,DewpointF,PressureIn,WindDirection,WindDirectionDegrees,WindSpeedMPH,WindSpeedGustMPH,Humidity,HourlyPrecipIn,Conditions,Clouds,dailyrainin,SoftwareType,DateUTC
2013-05-13 00:02:00,66.0,54.0,30.16,NNW,342,2.0,-999.0,65,0.00,,,0.00,,2013-05-13 05:02:00,
2013-05-13 00:12:00,66.0,53.0,30.16,NNW,342,2.0,-999.0,64,0.00,,,0.00,,2013-05-13 05:12:00,
2013-05-13 00:21:00,66.0,53.0,30.16,NNW,342,2.0,-999.0,64,0.00,,,0.00,,2013-05-13 05:21:00,
2013-05-13 00:32:00,65.0,54.0,30.16,NNW,329,4.0,-999.0,67,0.00,,,0.00,,2013-05-13 05:32:00,
2013-05-13 00:42:00,65.0,54.0,30.16,NNW,329,4.0,-999.0,67,0.00,,,0.00,,2013-05-13 05:42:00,
2013-05-13 00:52:00,63.0,53.0,30.16,NNW,329,4.0,-999.0,69,0.00,,,0.00,,2013-05-13 05:52:00,
2013-05-13 01:01:00,63.0,53.0,30.16,NNW,329,3.0,-999.0,69,0.00,,,0.00,,2013-05-13 06:01:00,
2013-05-13 01:11:00,63.0,53.0,30.16,NNW,329,3.0,-999.0,69,0.00,,,0.00,,2013-05-13 06:11:00,
2013-05-13 01:21:00,64.0,53.0,30.17,NNW,329,3.0,-999.0,67,0.00,,,0.00,,2013-05-13 06:21:00,
2013-05-13 01:31:00,64.0,52.0,30.17,NNW,329,1.0,-999.0,66,0.00,,,0.00,,2013-05-13 06:31:00,
2013-05-13 01:42:00,63.0,52.0,30.18,NNW,329,1.0,-999.0,67,0.00,,,0.00,,2013-05-13 06:42:00,
2013-05-13 01:52:00,63.0,52.0,30.18,NNW,329,1.0,-999.0,67,0.00,,,0.00,,2013-05-13 06:52:00,
2013-05-13 02:01:00,62.0,52.0,30.18,NNW,329,1.0,-999.0,69,0.00,,,0.00,,2013-05-13 07:01:00,
2013-05-13 02:11:00,62.0,52.0,30.18,NNW,329,1.0,-999.0,69,0.00,,,0.00,,2013-05-13 07:11:00,
2013-05-13 02:22:00,60.0,51.0,30.18,NNW,329,2.0,-999.0,73,0.00,,,0.00,,2013-05-13 07:22:00,
2013-05-13 02:31:00,59.0,51.0,30.18,NNW,329,3.0,-999.0,75,0.00,,,0.00,,2013-05-13 07:31:00,
2013-05-13 02:41:00,61.0,52.0,30.18,NNW,329,3.0,-999.0,71,0.00,,,0.00,,2013-05-13 07:41:00,
2013-05-13 02:52:00,61.0,52.0,30.18,NNW,329,3.0,-999.0,71,0.00,,,0.00,,2013-05-13 07:52:00,
2013-05-13 03:02:00,60.0,-99.9,-100.00,NNW,329,2.0,-999.0,-999,0.00,,,-99.99,,2013-05-13 08:02:00,
2013-05-13 03:11:00,60.0,-99.9,-100.00,NNW,329,2.0,-999.0,-999,0.00,,,-99.99,,2013-05-13 08:11:00,
2013-05-13 03:21:00,59.0,51.0,30.18,NNW,329,3.0,-999.0,74,0.00,,,0.00,,2013-05-13 08:21:00,
2013-05-13 03:31:00,58.0,50.0,30.18,NNW,329,2.0,-999.0,75,0.00,,,0.00,,2013-05-13 08:31:00,
2013-05-13 03:42:00,58.0,50.0,30.18,NNW,329,2.0,-999.0,75,0.00,,,0.00,,2013-05-13 08:42:00,
2013-05-13 03:52:00,58.0,50.0,30.18,NNW,329,2.0,-999.0,74,0.00,,,0.00,,2013-05-13 08:52:00,
2013-05-13 04:01:00,60.0,50.0,30.18,NNW,329,2.0,-999.0,70,0.00,,,0.00,,2013-05-13 09:01:00,
2013-05-13 04:11:00,60.0,50.0,30.18,NNW,329,2.0,-999.0,70,0.00,,,0.00,,2013-05-13 09:11:00,
2013-05-13 04:21:00,59.0,50.0,30.17,NNW,329,3.0,-999.0,71,0.00,,,0.00,,2013-05-13 09:21:00,
2013-05-13 04:33:00,58.0,49.0,30.17,NNW,329,3.0,-999.0,73,0.00,,,0.00,,2013-05-13 09:33:00,
2013-05-13 04:42:00,58.0,49.0,30.17,NNW,329,3.0,-999.0,73,0.00,,,0.00,,2013-05-13 09:42:00,
2013-05-13 04:52:00,59.0,48.0,30.17,NNW,329,3.0,-999.0,68,0.00,,,0.00,,2013-05-13 09:52:00,
2013-05-13 05:03:00,60.0,49.0,30.17,NNW,329,3.0,-999.0,66,0.00,,,0.00,,2013-05-13 10:03:00,
2013-05-13 05:12:00,60.0,49.0,30.17,NNW,329,3.0,-999.0,66,0.00,,,0.00,,2013-05-13 10:12:00,
2013-05-13 05:22:00,61.0,49.0,30.17,NNW,329,1.0,-999.0,64,0.00,,,0.00,,2013-05-13 10:22:00,
2013-05-13 05:32:00,59.0,49.0,30.18,NNW,329,3.0,-999.0,69,0.00,,,0.00,,2013-05-13 10:32:00,
2013-05-13 05:42:00,59.0,49.0,30.18,NNW,329,3.0,-999.0,69,0.00,,,0.00,,2013-05-13 10:42:00,
2013-05-13 05:52:00,57.0,48.0,30.17,NNW,329,2.0,-999.0,72,0.00,,,0.00,,2013-05-13 10:52:00,
2013-05-13 06:02:00,58.0,48.0,30.17,NNW,329,1.0,-999.0,70,0.00,,,0.00,,2013-05-13 11:02:00,
2013-05-13 06:12:00,58.0,48.0,30.17,NNW,329,1.0,-999.0,70,0.00,,,0.00,,2013-05-13 11:12:00,
2013-05-13 06:21:00,58.0,49.0,30.18,NNW,329,0.0,-999.0,71,0.00,,,0.00,,2013-05-13 11:21:00,
2013-05-13 06:32:00,56.0,48.0,30.17,NNW,329,0.0,-999.0,75,0.00,,,0.00,,2013-05-13 11:32:00,
2013-05-13 06:42:00,56.0,48.0,30.17,NNW,329,0.0,-999.0,75,0.00,,,0.00,,2013-05-13 11:42:00,
2013-05-13 06:52:00,55.0,48.0,30.18,NNW,329,0.0,-999.0,78,0.00,,,0.00,,2013-05-13 11:52:00,
2013-05-13 07:01:00,54.0,48.0,30.18,East,83,1.0,-999.0,81,0.00,,,0.00,,2013-05-13 12:01:00,
2013-05-13 07:11:00,54.0,48.0,30.18,East,83,1.0,-999.0,81,0.00,,,0.00,,2013-05-13 12:11:00,
2013-05-13 07:21:00,54.0,49.0,30.19,East,83,1.0,-999.0,83,0.00,,,0.00,,2013-05-13 12:21:00,
2013-05-13 07:32:00,55.0,49.0,30.20,East,83,0.0,-999.0,80,0.00,,,0.00,,2013-05-13 12:32:00,
2013-05-13 07:42:00,55.0,49.0,30.20,East,83,0.0,-999.0,80,0.00,,,0.00,,2013-05-13 12:42:00,
2013-05-13 07:52:00,55.0,50.0,30.21,ENE,70,2.0,-999.0,84,0.00,,,0.00,,2013-05-13 12:52:00,
2013-05-13 08:01:00,56.0,51.0,30.22,NW,321,3.0,-999.0,84,0.00,,,0.00,,2013-05-13 13:01:00,
2013-05-13 08:11:00,56.0,51.0,30.22,NW,321,3.0,-999.0,84,0.00,,,0.00,,2013-05-13 13:11:00,
2013-05-13 08:21:00,58.0,53.0,30.22,NNW,340,2.0,-999.0,82,0.00,,,0.00,,2013-05-13 13:21:00,
2013-05-13 08:31:00,61.0,54.0,30.22,NNW,340,3.0,-999.0,78,0.00,,,0.00,,2013-05-13 13:31:00,
2013-05-13 08:41:00,63.0,54.0,30.22,NNW,340,2.0,-999.0,72,0.00,,,0.00,,2013-05-13 13:41:00,
2013-05-13 08:52:00,63.0,54.0,30.22,NNW,340,2.0,-999.0,72,0.00,,,0.00,,2013-05-13 13:52:00,
2013-05-13 09:02:00,64.0,54.0,30.23,NNW,340,2.0,-999.0,71,0.00,,,0.00,,2013-05-13 14:02:00,
2013-05-13 09:11:00,64.0,54.0,30.23,NNW,340,2.0,-999.0,71,0.00,,,0.00,,2013-05-13 14:11:00,
2013-05-13 09:22:00,67.0,55.0,30.23,NNE,22,3.0,-999.0,66,0.00,,,0.00,,2013-05-13 14:22:00,
2013-05-13 09:31:00,68.0,55.0,30.23,NNE,22,1.0,-999.0,63,0.00,,,0.00,,2013-05-13 14:31:00,
2013-05-13 09:41:00,68.0,55.0,30.23,NNE,22,1.0,-999.0,63,0.00,,,0.00,,2013-05-13 14:41:00,
2013-05-13 09:52:00,71.0,56.0,30.23,ENE,69,0.0,-999.0,60,0.00,,,0.00,,2013-05-13 14:52:00,
2013-05-13 10:01:00,72.0,56.0,30.24,SSW,204,4.0,-999.0,58,0.00,,,0.00,,2013-05-13 15:01:00,
2013-05-13 10:11:00,72.0,56.0,30.24,SSW,204,4.0,-999.0,58,0.00,,,0.00,,2013-05-13 15:11:00,
2013-05-13 10:21:00,72.0,57.0,30.24,SW,222,2.0,-999.0,59,0.00,,,0.00,,2013-05-13 15:21:00,
2013-05-13 10:31:00,73.0,58.0,30.24,SSW,210,3.0,-999.0,59,0.00,,,0.00,,2013-05-13 15:31:00,
2013-05-13 10:42:00,73.0,58.0,30.24,SSW,210,3.0,-999.0,59,0.00,,,0.00,,2013-05-13 15:42:00,
2013-05-13 10:53:00,75.0,60.0,30.24,SSW,192,3.0,-999.0,59,0.00,,,0.00,,2013-05-13 15:53:00,
2013-05-13 11:03:00,76.0,59.0,30.24,SSE,160,2.0,-999.0,56,0.00,,,0.00,,2013-05-13 16:03:00,
2013-05-13 11:11:00,76.0,59.0,30.24,SSE,160,2.0,-999.0,56,0.00,,,0.00,,2013-05-13 16:11:00,
2013-05-13 11:21:00,77.0,59.0,30.24,SSW,192,3.0,-999.0,54,0.00,,,0.00,,2013-05-13 16:21:00,
2013-05-13 11:33:00,77.0,59.0,30.24,SSW,194,3.0,-999.0,54,0.00,,,0.00,,2013-05-13 16:33:00,
2013-05-13 11:42:00,78.0,58.0,30.24,West,267,6.0,-999.0,51,0.00,,,0.00,,2013-05-13 16:42:00,
2013-05-13 11:52:00,78.0,58.0,30.24,West,267,6.0,-999.0,51,0.00,,,0.00,,2013-05-13 16:52:00,
2013-05-13 12:02:00,79.0,58.0,30.24,SSW,195,4.0,-999.0,48,0.00,,,0.00,,2013-05-13 17:02:00,
2013-05-13 12:12:00,79.0,58.0,30.24,SSW,195,4.0,-999.0,48,0.00,,,0.00,,2013-05-13 17:12:00,
2013-05-13 12:21:00,79.0,59.0,30.24,South,190,3.0,-999.0,50,0.00,,,0.00,,2013-05-13 17:21:00,
2013-05-13 12:32:00,79.0,58.0,30.24,SSE,168,5.0,-999.0,48,0.00,,,0.00,,2013-05-13 17:32:00,
2013-05-13 12:42:00,79.0,58.0,30.23,WSW,253,2.0,-999.0,49,0.00,,,0.00,,2013-05-13 17:42:00,
2013-05-13 12:54:00,79.0,58.0,30.23,WSW,253,2.0,-999.0,49,0.00,,,0.00,,2013-05-13 17:54:00,
2013-05-13 13:03:00,79.0,58.0,30.22,SSE,167,4.0,-999.0,49,0.00,,,0.00,,2013-05-13 18:03:00,
2013-05-13 13:12:00,79.0,58.0,30.22,SSE,167,4.0,-999.0,49,0.00,,,0.00,,2013-05-13 18:12:00,
2013-05-13 13:23:00,80.0,57.0,30.22,SSE,157,9.0,-999.0,46,0.00,,,0.00,,2013-05-13 18:23:00,
2013-05-13 13:32:00,80.0,56.0,30.21,West,260,3.0,-999.0,44,0.00,,,0.00,,2013-05-13 18:32:00,
2013-05-13 13:42:00,80.0,55.0,30.21,SSE,157,4.0,-999.0,42,0.00,,,0.00,,2013-05-13 18:42:00,
2013-05-13 13:52:00,80.0,55.0,30.21,SSE,157,4.0,-999.0,42,0.00,,,0.00,,2013-05-13 18:52:00,
2013-05-13 14:01:00,81.0,58.0,30.20,SSW,198,7.0,-999.0,45,0.00,,,0.00,,2013-05-13 19:01:00,
2013-05-13 14:11:00,81.0,58.0,30.20,SSW,198,7.0,-999.0,45,0.00,,,0.00,,2013-05-13 19:11:00,
2013-05-13 14:21:00,81.0,56.0,30.19,SE,130,2.0,-999.0,42,0.00,,,0.00,,2013-05-13 19:21:00,
2013-05-13 14:32:00,82.0,59.0,30.19,South,188,7.0,-999.0,45,0.00,,,0.00,,2013-05-13 19:32:00,
2013-05-13 14:43:00,82.0,53.0,30.19,East,96,1.0,-999.0,37,0.00,,,0.00,,2013-05-13 19:43:00,
2013-05-13 14:53:00,82.0,53.0,30.19,East,96,1.0,-999.0,37,0.00,,,0.00,,2013-05-13 19:53:00,
2013-05-13 15:01:00,82.0,56.0,30.18,ESE,123,12.0,-999.0,41,0.00,,,0.00,,2013-05-13 20:01:00,
2013-05-13 15:11:00,82.0,56.0,30.18,ESE,123,12.0,-999.0,41,0.00,,,0.00,,2013-05-13 20:11:00,
2013-05-13 15:23:00,82.0,56.0,30.18,SSE,168,3.0,-999.0,41,0.00,,,0.00,,2013-05-13 20:23:00,
2013-05-13 15:33:00,82.0,55.0,30.17,South,185,3.0,-999.0,40,0.00,,,0.00,,2013-05-13 20:33:00,
2013-05-13 15:44:00,82.0,55.0,30.17,South,185,3.0,-999.0,40,0.00,,,0.00,,2013-05-13 20:44:00,
2013-05-13 15:53:00,83.0,55.0,30.17,SSW,200,7.0,-999.0,39,0.00,,,0.00,,2013-05-13 20:53:00,
2013-05-13 16:03:00,83.0,56.0,30.16,ESE,112,3.0,-999.0,40,0.00,,,0.00,,2013-05-13 21:03:00,
2013-05-13 16:14:00,83.0,56.0,30.16,ESE,112,3.0,-999.0,40,0.00,,,0.00,,2013-05-13 21:14:00,
2013-05-13 16:23:00,83.0,55.0,30.15,ESE,123,2.0,-999.0,39,0.00,,,0.00,,2013-05-13 21:23:00,
2013-05-13 16:33:00,83.0,55.0,30.14,SE,124,2.0,-999.0,39,0.00,,,0.00,,2013-05-13 21:33:00,
2013-05-13 16:43:00,83.0,55.0,30.14,SE,124,2.0,-999.0,39,0.00,,,0.00,,2013-05-13 21:43:00,
2013-05-13 16:53:00,83.0,57.0,30.14,SSW,206,5.0,-999.0,41,0.00,,,0.00,,2013-05-13 21:53:00,
2013-05-13 17:02:00,83.0,54.0,30.14,East,97,1.0,-999.0,37,0.00,,,0.00,,2013-05-13 22:02:00,
2013-05-13 17:12:00,83.0,54.0,30.14,East,97,1.0,-999.0,37,0.00,,,0.00,,2013-05-13 22:12:00,
2013-05-13 17:23:00,83.0,56.0,30.14,South,182,4.0,-999.0,40,0.00,,,0.00,,2013-05-13 22:23:00,
2013-05-13 17:32:00,83.0,55.0,30.14,SE,124,6.0,-999.0,39,0.00,,,0.00,,2013-05-13 22:32:00,
2013-05-13 17:42:00,83.0,53.0,30.14,SE,124,5.0,-999.0,36,0.00,,,0.00,,2013-05-13 22:42:00,
2013-05-13 17:52:00,83.0,53.0,30.14,SE,124,5.0,-999.0,36,0.00,,,0.00,,2013-05-13 22:52:00,
2013-05-13 18:01:00,83.0,55.0,30.13,SSE,157,7.0,-999.0,39,0.00,,,0.00,,2013-05-13 23:01:00,
2013-05-13 18:12:00,83.0,55.0,30.13,SSE,157,7.0,-999.0,39,0.00,,,0.00,,2013-05-13 23:12:00,
2013-05-13 18:23:00,83.0,55.0,30.13,SSE,156,8.0,-999.0,39,0.00,,,0.00,,2013-05-13 23:23:00,
2013-05-13 18:33:00,83.0,55.0,30.13,SSE,162,7.0,-999.0,39,0.00,,,0.00,,2013-05-13 23:33:00,
2013-05-13 18:42:00,83.0,55.0,30.13,SSE,162,7.0,-999.0,39,0.00,,,0.00,,2013-05-13 23:42:00,
2013-05-13 18:54:00,82.0,55.0,30.12,SSE,161,7.0,-999.0,40,0.00,,,0.00,,2013-05-13 23:54:00,
2013-05-13 19:02:00,82.0,55.0,30.12,SSE,165,7.0,-999.0,39,0.00,,,0.00,,2013-05-14 00:02:00,
2013-05-13 19:12:00,82.0,55.0,30.11,ESE,122,4.0,-999.0,40,0.00,,,0.00,,2013-05-14 00:12:00,
2013-05-13 19:22:00,82.0,55.0,30.11,ESE,122,4.0,-999.0,40,0.00,,,0.00,,2013-05-14 00:22:00,
2013-05-13 19:31:00,82.0,55.0,30.12,SSE,148,3.0,-999.0,40,0.00,,,0.00,,2013-05-14 00:31:00,
2013-05-13 19:41:00,82.0,55.0,30.12,SSE,148,3.0,-999.0,40,0.00,,,0.00,,2013-05-14 00:41:00,
2013-05-13 19:52:00,81.0,56.0,30.11,SSE,149,10.0,-999.0,43,0.00,,,0.00,,2013-05-14 00:52:00,
2013-05-13 20:01:00,80.0,56.0,30.12,SE,138,5.0,-999.0,44,0.00,,,0.00,,2013-05-14 01:01:00,
2013-05-13 20:11:00,80.0,56.0,30.12,SE,138,5.0,-999.0,44,0.00,,,0.00,,2013-05-14 01:11:00,
2013-05-13 20:21:00,78.0,56.0,30.11,SE,133,2.0,-999.0,47,0.00,,,0.00,,2013-05-14 01:21:00,
2013-05-13 20:31:00,78.0,56.0,30.12,SSE,152,2.0,-999.0,47,0.00,,,0.00,,2013-05-14 01:31:00,
2013-05-13 20:43:00,78.0,56.0,30.12,SSE,152,2.0,-999.0,47,0.00,,,0.00,,2013-05-14 01:43:00,
2013-05-13 20:53:00,75.0,57.0,30.13,SW,217,2.0,-999.0,54,0.00,,,0.00,,2013-05-14 01:53:00,
2013-05-13 21:02:00,74.0,56.0,30.13,SSE,165,0.0,-999.0,54,0.00,,,0.00,,2013-05-14 02:02:00,
2013-05-13 21:11:00,73.0,56.0,30.13,SSE,165,0.0,-999.0,56,0.00,,,0.00,,2013-05-14 02:11:00,
2013-05-13 21:22:00,73.0,56.0,30.13,SSE,165,0.0,-999.0,56,0.00,,,0.00,,2013-05-14 02:22:00,
2013-05-13 21:32:00,72.0,56.0,30.13,SSE,165,0.0,-999.0,58,0.00,,,0.00,,2013-05-14 02:32:00,
2013-05-13 21:42:00,72.0,56.0,30.13,SSE,165,0.0,-999.0,58,0.00,,,0.00,,2013-05-14 02:42:00,
2013-05-13 21:52:00,73.0,57.0,30.14,SE,140,7.0,-999.0,58,0.00,,,0.00,,2013-05-14 02:52:00,
2013-05-13 22:01:00,74.0,58.0,30.15,SE,146,5.0,-999.0,57,0.00,,,0.00,,2013-05-14 03:01:00,
2013-05-13 22:11:00,74.0,58.0,30.15,SE,146,5.0,-999.0,57,0.00,,,0.00,,2013-05-14 03:11:00,
2013-05-13 22:21:00,74.0,58.0,30.16,SE,146,5.0,-999.0,58,0.00,,,0.00,,2013-05-14 03:21:00,
2013-05-13 22:33:00,73.0,58.0,30.16,SSE,155,4.0,-999.0,60,0.00,,,0.00,,2013-05-14 03:33:00,
2013-05-13 22:42:00,73.0,58.0,30.16,SSE,155,4.0,-999.0,60,0.00,,,0.00,,2013-05-14 03:42:00,
2013-05-13 22:53:00,73.0,59.0,30.17,SSE,148,6.0,-999.0,61,0.00,,,0.00,,2013-05-14 03:53:00,
2013-05-13 23:02:00,72.0,58.0,30.17,SSE,163,6.0,-999.0,61,0.00,,,0.00,,2013-05-14 04:02:00,
2013-05-13 23:13:00,72.0,58.0,30.17,SSE,163,6.0,-999.0,61,0.00,,,0.00,,2013-05-14 04:13:00,
2013-05-13 23:22:00,71.0,57.0,30.18,South,169,3.0,-999.0,62,0.00,,,0.00,,2013-05-14 04:22:00,
2013-05-13 23:32:00,71.0,58.0,30.19,SSE,158,5.0,-999.0,63,0.00,,,0.00,,2013-05-14 04:32:00,
2013-05-13 23:43:00,71.0,58.0,30.19,SSE,158,5.0,-999.0,63,0.00,,,0.00,,2013-05-14 04:43:00,
2013-05-13 23:53:00,70.0,58.0,30.19,SSE,160,3.0,-999.0,66,0.00,,,0.00,,2013-05-14 04:53:00,